createdAt,value
2022-08-20T00:00:00.086Z,98152.00
2022-08-20T00:02:42.011Z,98129.00
2022-08-20T00:05:18.355Z,98134.00
2022-08-20T00:07:54.181Z,98150.00
2022-08-20T00:11:31.650Z,98146.00
2022-08-20T00:14:13.387Z,98145.00
2022-08-20T00:16:51.194Z,98146.00
2022-08-20T00:19:27.177Z,98152.00
2022-08-20T00:22:12.051Z,98159.00
2022-08-20T00:24:48.824Z,98150.00
2022-08-20T00:27:23.502Z,98159.00
2022-08-20T00:30:30.396Z,98159.00
2022-08-20T00:33:12.427Z,98162.00
2022-08-20T00:35:52.086Z,98151.00
2022-08-20T00:38:29.877Z,98160.00
2022-08-20T00:41:16.739Z,98167.00
2022-08-20T00:43:54.385Z,98167.00
2022-08-20T00:46:49.186Z,98169.00
2022-08-20T00:49:28.173Z,98173.00
2022-08-20T00:52:09.061Z,98161.00
2022-08-20T00:54:47.030Z,98170.00
2022-08-20T00:57:26.406Z,98161.00
2022-08-20T01:00:02.662Z,98170.00
2022-08-20T01:02:43.076Z,98156.00
2022-08-20T01:05:28.663Z,98163.00
2022-08-20T01:08:12.021Z,98167.00
2022-08-20T01:10:54.381Z,98161.00
2022-08-20T01:13:31.510Z,98172.00
2022-08-20T01:16:21.713Z,98167.00
2022-08-20T01:19:02.476Z,98166.00
2022-08-20T01:21:39.286Z,98162.00
2022-08-20T01:24:21.314Z,98165.00
2022-08-20T01:27:14.956Z,98168.00
2022-08-20T01:34:13.566Z,98194.00
2022-08-20T01:37:06.219Z,98189.00
2022-08-20T01:39:40.757Z,98180.00
2022-08-20T01:42:38.878Z,98182.00
2022-08-20T01:46:05.524Z,98192.00
2022-08-20T01:48:42.082Z,98190.00
2022-08-20T01:51:28.384Z,98180.00
2022-08-20T01:54:03.421Z,98196.00
2022-08-20T01:56:53.301Z,98200.00
2022-08-20T01:59:32.817Z,98200.00
2022-08-20T02:02:18.587Z,98188.00
2022-08-20T02:04:55.359Z,98200.00
2022-08-20T02:07:36.334Z,98189.00
2022-08-20T02:10:24.913Z,98196.00
2022-08-20T02:12:59.661Z,98198.00
2022-08-20T02:15:39.654Z,98187.00
2022-08-20T02:18:18.371Z,98200.00
2022-08-20T02:20:53.795Z,98193.00
2022-08-20T02:23:29.144Z,98208.00
2022-08-20T02:26:07.708Z,98214.00
2022-08-20T02:28:44.363Z,98210.00
2022-08-20T02:32:24.406Z,98200.00
2022-08-20T02:35:18.788Z,98200.00
2022-08-20T02:38:21.342Z,98199.00
2022-08-20T02:41:00.581Z,98203.00
2022-08-20T02:43:35.204Z,98201.00
2022-08-20T02:46:24.021Z,98202.00
2022-08-20T02:49:00.715Z,98201.00
2022-08-20T02:51:36.474Z,98193.00
2022-08-20T02:54:11.817Z,98191.00
2022-08-20T02:56:48.371Z,98185.00
2022-08-20T02:59:24.691Z,98179.00
2022-08-20T03:02:01.167Z,98183.00
2022-08-20T03:04:44.884Z,98187.00
2022-08-20T03:07:57.055Z,98182.00
2022-08-20T03:10:59.760Z,98190.00
2022-08-20T03:13:34.992Z,98190.00
2022-08-20T03:16:14.451Z,98183.00
2022-08-20T03:18:53.438Z,98188.00
2022-08-20T03:22:06.811Z,98185.00
2022-08-20T03:24:59.804Z,98169.00
2022-08-20T03:27:54.248Z,98178.00
2022-08-20T03:30:31.571Z,98185.00
2022-08-20T03:33:06.767Z,98182.00
2022-08-20T03:35:41.729Z,98182.00
2022-08-20T03:38:33.225Z,98182.00
2022-08-20T03:42:16.992Z,98188.00
2022-08-20T03:44:58.663Z,98178.00
2022-08-20T03:47:34.226Z,98187.00
2022-08-20T03:50:22.660Z,98180.00
2022-08-20T03:54:15.656Z,98190.00
2022-08-20T03:56:53.016Z,98199.00
2022-08-20T03:59:27.558Z,98212.00
2022-08-20T04:02:03.630Z,98205.00
2022-08-20T04:04:43.379Z,98194.00
2022-08-20T04:07:28.158Z,98203.00
2022-08-20T04:10:06.905Z,98197.00
2022-08-20T04:12:52.784Z,98190.00
2022-08-20T04:15:30.553Z,98193.00
2022-08-20T04:18:37.050Z,98192.00
2022-08-20T04:21:18.425Z,98199.00
2022-08-20T04:24:35.290Z,98212.00
2022-08-20T04:27:15.398Z,98193.00
2022-08-20T04:29:51.534Z,98198.00
2022-08-20T04:32:26.181Z,98182.00
2022-08-20T04:35:01.364Z,98206.00
2022-08-20T04:37:47.839Z,98203.00
2022-08-20T04:40:43.523Z,98204.00
2022-08-20T04:43:17.955Z,98206.00
2022-08-20T04:45:57.894Z,98209.00
2022-08-20T04:48:36.482Z,98214.00
2022-08-20T04:51:15.197Z,98197.00
2022-08-20T04:53:51.755Z,98215.00
2022-08-20T04:57:01.430Z,98217.00
2022-08-20T04:59:42.172Z,98222.00
2022-08-20T05:02:20.394Z,98223.00
2022-08-20T05:04:55.077Z,98208.00
2022-08-20T05:07:41.944Z,98228.00
2022-08-20T05:10:23.350Z,98221.00
2022-08-20T05:12:58.493Z,98230.00
2022-08-20T05:15:48.835Z,98246.00
2022-08-20T05:18:28.125Z,98243.00
2022-08-20T05:21:41.742Z,98245.00
2022-08-20T05:24:16.575Z,98240.00
2022-08-20T05:27:06.667Z,98234.00
2022-08-20T05:30:11.852Z,98257.00
2022-08-20T05:33:19.976Z,98235.00
2022-08-20T05:35:57.991Z,98240.00
2022-08-20T05:38:59.716Z,98247.00
2022-08-20T05:41:53.632Z,98251.00
2022-08-20T05:44:28.164Z,98257.00
2022-08-20T05:47:04.148Z,98253.00
2022-08-20T05:49:42.004Z,98257.00
2022-08-20T05:52:18.896Z,98244.00
2022-08-20T05:54:53.410Z,98264.00
2022-08-20T05:57:28.266Z,98265.00
2022-08-20T06:00:11.219Z,98263.00
2022-08-20T06:03:05.530Z,98253.00
2022-08-20T06:05:48.742Z,98240.00
2022-08-20T06:08:25.600Z,98253.00
2022-08-20T06:11:00.560Z,98256.00
2022-08-20T06:13:35.703Z,98245.00
2022-08-20T06:16:09.966Z,98254.00
2022-08-20T06:18:55.111Z,98257.00
2022-08-20T06:21:34.444Z,98278.00
2022-08-20T06:24:11.025Z,98253.00
2022-08-20T06:26:48.178Z,98270.00
2022-08-20T06:29:23.535Z,98267.00
2022-08-20T06:32:13.253Z,98267.00
2022-08-20T06:34:49.835Z,98260.00
2022-08-20T06:37:38.285Z,98271.00
2022-08-20T06:40:25.608Z,98278.00
2022-08-20T06:43:00.759Z,98280.00
2022-08-20T06:45:36.813Z,98269.00
2022-08-20T06:48:15.332Z,98270.00
2022-08-20T06:50:50.201Z,98269.00
2022-08-20T06:53:30.830Z,98278.00
2022-08-20T06:56:07.220Z,98271.00
2022-08-20T06:58:42.886Z,98278.00
2022-08-20T07:01:21.474Z,98269.00
2022-08-20T07:04:00.645Z,98275.00
2022-08-20T07:06:37.839Z,98261.00
2022-08-20T07:09:12.415Z,98279.00
2022-08-20T07:11:49.345Z,98265.00
2022-08-20T07:14:24.680Z,98289.00
2022-08-20T07:17:41.719Z,98280.00
2022-08-20T07:21:12.699Z,98283.00
2022-08-20T07:24:56.129Z,98279.00
2022-08-20T07:40:36.643Z,98298.00
2022-08-20T07:48:06.519Z,98290.00
2022-08-20T07:50:47.240Z,98303.00
2022-08-20T07:53:39.676Z,98307.00
2022-08-20T07:56:28.176Z,98308.00
2022-08-20T07:59:09.993Z,98310.00
2022-08-20T08:06:00.810Z,98311.00
2022-08-20T08:13:17.901Z,98314.00
2022-08-20T08:17:06.357Z,98313.00
2022-08-20T08:24:02.003Z,98316.00
2022-08-20T08:30:49.050Z,98308.00
2022-08-20T08:33:34.110Z,98305.00
2022-08-20T08:36:21.513Z,98313.00
2022-08-20T08:39:06.999Z,98311.00
2022-08-20T08:41:49.912Z,98296.00
2022-08-20T08:44:50.341Z,98308.00
2022-08-20T08:58:30.767Z,98302.00
2022-08-20T09:05:55.907Z,98300.00
2022-08-20T09:09:07.807Z,98303.00
2022-08-20T09:12:13.925Z,98302.00
2022-08-20T09:16:10.247Z,98301.00
2022-08-20T09:18:53.935Z,98295.00
2022-08-20T09:22:09.262Z,98295.00
2022-08-20T09:24:56.940Z,98295.00
2022-08-20T09:27:43.557Z,98296.00
2022-08-20T09:30:22.992Z,98293.00
2022-08-20T09:33:01.674Z,98290.00
2022-08-20T09:35:36.413Z,98287.00
2022-08-20T09:38:11.206Z,98294.00
2022-08-20T09:40:49.728Z,98299.00
2022-08-20T09:43:54.741Z,98280.00
2022-08-20T09:50:48.005Z,98281.00
2022-08-20T09:57:41.458Z,98272.00
2022-08-20T10:00:20.387Z,98283.00
2022-08-20T10:03:08.471Z,98278.00
2022-08-20T10:05:55.543Z,98274.00
2022-08-20T10:08:49.063Z,98286.00
2022-08-20T10:19:51.267Z,98290.00
2022-08-20T10:22:27.414Z,98301.00
2022-08-20T10:25:13.582Z,98301.00
2022-08-20T10:28:12.078Z,98303.00
2022-08-20T10:30:48.250Z,98310.00
2022-08-20T10:34:10.225Z,98312.00
2022-08-20T10:41:02.575Z,98312.00
2022-08-20T10:43:48.885Z,98313.00
2022-08-20T10:46:23.848Z,98310.00
2022-08-20T10:48:58.804Z,98302.00
2022-08-20T10:52:48.582Z,98304.00
2022-08-20T10:55:54.366Z,98300.00
2022-08-20T10:59:29.380Z,98294.00
2022-08-20T11:02:07.752Z,98305.00
2022-08-20T11:05:02.741Z,98313.00
2022-08-20T11:07:55.918Z,98315.00
2022-08-20T11:10:48.631Z,98327.00
2022-08-20T11:13:24.022Z,98324.00
2022-08-20T11:15:58.894Z,98339.00
2022-08-20T11:19:02.170Z,98319.00
2022-08-20T11:22:14.200Z,98320.00
2022-08-20T11:25:06.908Z,98328.00
2022-08-20T11:27:45.623Z,98312.00
2022-08-20T11:30:23.298Z,98325.00
2022-08-20T11:33:07.916Z,98336.00
2022-08-20T11:39:56.941Z,98345.00
2022-08-20T11:46:44.245Z,98358.00
2022-08-20T11:53:31.208Z,98335.00
2022-08-20T12:00:32.351Z,98328.00
2022-08-20T12:04:00.696Z,98335.00
2022-08-20T12:06:35.620Z,98339.00
2022-08-20T12:09:24.688Z,98333.00
2022-08-20T12:12:02.129Z,98344.00
2022-08-20T12:14:37.038Z,98344.00
2022-08-20T12:17:19.770Z,98340.00
2022-08-20T12:24:06.857Z,98353.00
2022-08-20T12:27:30.098Z,98334.00
2022-08-20T12:38:32.824Z,98335.00
2022-08-20T12:42:22.029Z,98328.00
2022-08-20T12:44:56.948Z,98331.00
2022-08-20T12:47:38.953Z,98328.00
2022-08-20T12:50:22.709Z,98323.00
2022-08-20T12:57:17.451Z,98327.00
2022-08-20T13:04:06.460Z,98321.00
2022-08-20T13:07:31.184Z,98322.00
2022-08-20T13:11:06.837Z,98320.00
2022-08-20T13:13:46.989Z,98322.00
2022-08-20T13:16:21.825Z,98325.00
2022-08-20T13:19:18.565Z,98333.00
2022-08-20T13:22:18.531Z,98320.00
2022-08-20T13:24:55.580Z,98330.00
2022-08-20T13:27:30.317Z,98321.00
2022-08-20T13:30:11.101Z,98334.00
2022-08-20T13:32:48.635Z,98317.00
2022-08-20T13:35:25.276Z,98326.00
2022-08-20T13:38:01.051Z,98311.00
2022-08-20T13:40:36.908Z,98336.00
2022-08-20T13:43:12.427Z,98322.00
2022-08-20T13:45:56.268Z,98340.00
2022-08-20T13:48:59.922Z,98342.00
2022-08-20T13:51:54.080Z,98349.00
2022-08-20T13:54:30.647Z,98360.00
2022-08-20T13:57:16.256Z,98347.00
2022-08-20T13:59:59.106Z,98358.00
2022-08-20T14:02:37.139Z,98361.00
2022-08-20T14:05:14.880Z,98345.00
2022-08-20T14:08:47.916Z,98345.00
2022-08-20T14:11:22.504Z,98346.00
2022-08-20T14:13:57.940Z,98337.00
2022-08-20T14:17:17.449Z,98342.00
2022-08-20T14:20:32.114Z,98332.00
2022-08-20T14:23:07.968Z,98333.00
2022-08-20T14:25:50.638Z,98324.00
2022-08-20T14:28:47.939Z,98322.00
2022-08-20T14:32:23.542Z,98312.00
2022-08-20T14:35:59.001Z,98306.00
2022-08-20T14:39:30.243Z,98298.00
2022-08-20T14:42:12.671Z,98289.00
2022-08-20T14:44:47.371Z,98289.00
2022-08-20T14:47:27.153Z,98287.00
2022-08-20T14:50:10.383Z,98295.00
2022-08-20T14:52:54.748Z,98291.00
2022-08-20T14:55:36.495Z,98293.00
2022-08-20T14:58:42.140Z,98290.00
2022-08-20T15:01:59.997Z,98290.00
2022-08-20T15:04:37.736Z,98293.00
2022-08-20T15:07:27.593Z,98286.00
2022-08-20T15:14:18.386Z,98279.00
2022-08-20T15:17:57.172Z,98279.00
2022-08-20T15:25:00.895Z,98258.00
2022-08-20T15:27:36.919Z,98260.00
2022-08-20T15:30:23.759Z,98268.00
2022-08-20T15:32:58.689Z,98260.00
2022-08-20T15:35:33.553Z,98259.00
2022-08-20T15:38:13.134Z,98263.00
2022-08-20T15:40:49.610Z,98250.00
2022-08-20T15:43:24.335Z,98242.00
2022-08-20T15:46:06.497Z,98268.00
2022-08-20T15:48:46.914Z,98267.00
2022-08-20T15:51:45.460Z,98260.00
2022-08-20T15:54:28.854Z,98266.00
2022-08-20T15:57:13.157Z,98260.00
2022-08-20T16:00:10.422Z,98263.00
2022-08-20T16:03:38.755Z,98272.00
2022-08-20T16:06:36.168Z,98270.00
2022-08-20T16:18:31.374Z,98265.00
2022-08-20T16:22:01.457Z,98264.00
2022-08-20T16:29:33.975Z,98271.00
2022-08-20T16:33:16.082Z,98274.00
2022-08-20T16:37:12.344Z,98273.00
2022-08-20T16:40:26.901Z,98279.00
2022-08-20T16:44:00.792Z,98287.00
2022-08-20T16:46:44.923Z,98285.00
2022-08-20T16:50:44.243Z,98274.00
2022-08-20T16:54:12.707Z,98278.00
2022-08-20T17:05:50.825Z,98270.00
2022-08-20T17:12:32.354Z,98257.00
2022-08-20T17:23:54.722Z,98265.00
2022-08-20T17:30:43.224Z,98259.00
2022-08-20T17:34:16.065Z,98268.00
2022-08-20T17:37:01.046Z,98273.00
2022-08-20T17:44:33.854Z,98260.00
2022-08-20T17:48:27.262Z,98271.00
2022-08-20T17:51:44.524Z,98275.00
2022-08-20T17:54:57.994Z,98275.00
2022-08-20T18:06:28.482Z,98280.00
2022-08-20T18:10:20.652Z,98278.00
2022-08-20T18:15:59.938Z,98284.00
2022-08-20T18:23:21.829Z,98286.00
2022-08-20T18:26:13.865Z,98281.00
2022-08-20T18:29:14.538Z,98286.00
2022-08-20T18:31:59.200Z,98292.00
2022-08-20T18:34:42.611Z,98294.00
2022-08-20T18:37:42.162Z,98291.00
2022-08-20T18:40:29.154Z,98301.00
2022-08-20T18:47:24.612Z,98302.00
2022-08-20T18:54:27.303Z,98309.00
2022-08-20T19:01:16.765Z,98309.00
2022-08-20T19:04:28.618Z,98312.00
2022-08-20T19:08:14.542Z,98309.00
2022-08-20T19:11:43.332Z,98308.00
2022-08-20T19:15:03.739Z,98314.00
2022-08-20T19:18:08.971Z,98319.00
2022-08-20T19:21:15.814Z,98319.00
2022-08-20T19:23:59.621Z,98321.00
2022-08-20T19:26:44.342Z,98323.00
2022-08-20T19:30:08.710Z,98325.00
2022-08-20T19:34:19.655Z,98319.00
2022-08-20T19:43:12.977Z,98330.00
2022-08-20T19:46:05.801Z,98329.00
2022-08-20T19:48:56.746Z,98306.00
2022-08-20T19:52:09.341Z,98330.00
2022-08-20T19:55:04.425Z,98322.00
2022-08-20T19:57:39.273Z,98318.00
2022-08-20T20:00:17.148Z,98329.00
2022-08-20T20:02:56.685Z,98342.00
2022-08-20T20:05:34.231Z,98327.00
2022-08-20T20:08:12.991Z,98331.00
2022-08-20T20:10:56.036Z,98331.00
2022-08-20T20:13:39.549Z,98320.00
2022-08-20T20:16:18.604Z,98327.00
2022-08-20T20:19:25.384Z,98328.00
2022-08-20T20:22:24.840Z,98329.00
2022-08-20T20:25:24.080Z,98330.00
2022-08-20T20:29:04.424Z,98338.00
2022-08-20T20:31:50.753Z,98335.00
2022-08-20T20:34:30.329Z,98321.00
2022-08-20T20:37:18.235Z,98311.00
2022-08-20T20:40:49.161Z,98334.00
2022-08-20T20:43:32.775Z,98335.00
2022-08-20T20:46:15.336Z,98321.00
2022-08-20T20:48:55.993Z,98336.00
2022-08-20T20:51:44.346Z,98333.00
2022-08-20T20:54:42.435Z,98329.00
2022-08-20T20:58:27.174Z,98335.00
2022-08-20T21:01:52.579Z,98335.00
2022-08-20T21:04:28.871Z,98331.00
2022-08-20T21:07:26.129Z,98331.00
2022-08-20T21:10:12.761Z,98331.00
2022-08-20T21:12:55.021Z,98336.00
2022-08-20T21:16:00.083Z,98336.00
2022-08-20T21:18:39.768Z,98323.00
2022-08-20T21:21:45.663Z,98332.00
2022-08-20T21:25:00.627Z,98322.00
2022-08-20T21:28:18.183Z,98327.00
2022-08-20T21:30:58.323Z,98321.00
2022-08-20T21:34:11.068Z,98324.00
2022-08-20T21:37:08.004Z,98322.00
2022-08-20T21:39:43.077Z,98336.00
2022-08-20T21:42:29.301Z,98314.00
2022-08-20T21:45:05.875Z,98330.00
2022-08-20T21:47:43.573Z,98319.00
2022-08-20T21:50:38.622Z,98328.00
2022-08-20T21:53:38.204Z,98333.00
2022-08-20T21:56:32.727Z,98335.00
2022-08-20T21:59:10.042Z,98327.00
2022-08-20T22:03:04.219Z,98340.00
2022-08-20T22:05:50.234Z,98331.00
2022-08-20T22:08:30.829Z,98330.00
2022-08-20T22:11:39.005Z,98333.00
2022-08-20T22:14:32.301Z,98327.00
2022-08-20T22:17:12.705Z,98346.00
2022-08-20T22:19:48.217Z,98338.00
2022-08-20T22:22:40.473Z,98326.00
2022-08-20T22:25:43.262Z,98343.00
2022-08-20T22:28:20.633Z,98348.00
2022-08-20T22:31:48.478Z,98356.00
2022-08-20T22:34:25.633Z,98340.00
2022-08-20T22:38:12.737Z,98353.00
2022-08-20T22:41:51.190Z,98341.00
2022-08-20T22:44:36.982Z,98347.00
2022-08-20T22:47:11.734Z,98340.00
2022-08-20T22:50:00.812Z,98337.00
2022-08-20T22:53:23.999Z,98333.00
2022-08-20T22:56:19.976Z,98335.00
2022-08-20T22:59:01.218Z,98345.00
2022-08-20T23:01:45.372Z,98313.00
2022-08-20T23:04:33.047Z,98340.00
2022-08-20T23:07:16.151Z,98344.00
2022-08-20T23:10:25.267Z,98333.00
2022-08-20T23:13:24.460Z,98331.00
2022-08-20T23:15:58.963Z,98334.00
2022-08-20T23:18:44.668Z,98338.00
2022-08-20T23:21:59.837Z,98336.00
2022-08-20T23:25:30.477Z,98334.00
2022-08-20T23:28:29.940Z,98333.00
2022-08-20T23:31:13.444Z,98339.00
2022-08-20T23:34:16.874Z,98335.00
2022-08-20T23:37:01.957Z,98327.00
2022-08-20T23:39:39.207Z,98331.00
2022-08-20T23:43:14.818Z,98328.00
2022-08-20T23:46:04.586Z,98332.00
2022-08-20T23:48:55.098Z,98327.00
2022-08-20T23:51:45.370Z,98315.00
2022-08-20T23:54:48.494Z,98325.00
2022-08-20T23:57:23.013Z,98326.00
